createdAt,value
2019-02-19T00:02:20.105Z,13.67
2019-02-19T00:04:48.223Z,14.33
2019-02-19T00:07:15.054Z,13.10
2019-02-19T00:09:43.128Z,13.63
2019-02-19T00:12:10.025Z,14.13
2019-02-19T00:14:36.880Z,13.37
2019-02-19T00:17:04.684Z,13.97
2019-02-19T00:19:31.661Z,13.37
2019-02-19T00:21:59.186Z,13.70
2019-02-19T00:24:26.105Z,14.27
2019-02-19T00:26:52.864Z,12.83
2019-02-19T00:29:22.555Z,13.20
2019-02-19T00:31:49.308Z,13.70
2019-02-19T00:34:16.113Z,14.20
2019-02-19T00:36:42.903Z,13.33
2019-02-19T00:39:10.033Z,13.90
2019-02-19T00:41:36.988Z,12.67
2019-02-19T00:44:03.724Z,13.57
2019-02-19T00:46:31.574Z,13.23
2019-02-19T00:48:58.610Z,13.20
2019-02-19T00:51:25.390Z,13.40
2019-02-19T00:53:53.090Z,13.37
2019-02-19T00:56:19.913Z,14.13
2019-02-19T00:58:46.850Z,14.13
2019-02-19T01:01:14.725Z,14.33
2019-02-19T01:03:42.321Z,15.10
2019-02-19T01:06:09.013Z,14.37
2019-02-19T01:08:35.754Z,14.83
2019-02-19T01:11:02.443Z,15.17
2019-02-19T01:13:29.142Z,15.33
2019-02-19T01:15:55.976Z,14.37
2019-02-19T01:18:22.711Z,16.30
2019-02-19T01:20:49.566Z,15.67
2019-02-19T01:23:16.871Z,15.60
2019-02-19T01:25:43.566Z,14.77
2019-02-19T01:28:10.303Z,16.20
2019-02-19T01:30:37.509Z,16.30
2019-02-19T01:33:04.328Z,17.23
2019-02-19T01:35:31.781Z,17.97
2019-02-19T01:37:59.519Z,18.20
2019-02-19T01:40:26.353Z,17.73
2019-02-19T01:42:56.357Z,16.53
2019-02-19T01:45:23.722Z,16.63
2019-02-19T01:47:50.627Z,17.43
2019-02-19T01:50:19.648Z,17.77
2019-02-19T01:52:46.515Z,17.47
2019-02-19T01:55:13.172Z,18.00
2019-02-19T01:57:41.697Z,17.63
2019-02-19T02:00:08.831Z,18.10
2019-02-19T02:02:35.625Z,16.43
2019-02-19T02:05:02.502Z,17.40
2019-02-19T02:07:29.515Z,17.93
2019-02-19T02:09:56.177Z,17.33
2019-02-19T02:12:23.099Z,17.57
2019-02-19T02:14:50.873Z,17.43
2019-02-19T02:17:17.675Z,15.93
2019-02-19T02:19:44.961Z,16.13
2019-02-19T02:22:11.946Z,16.10
2019-02-19T02:24:41.241Z,16.90
2019-02-19T02:27:08.655Z,17.07
2019-02-19T02:29:36.452Z,17.37
2019-02-19T02:32:04.108Z,16.80
2019-02-19T02:34:30.881Z,17.70
2019-02-19T02:36:58.056Z,17.30
2019-02-19T02:39:25.796Z,17.07
2019-02-19T02:41:52.528Z,16.07
2019-02-19T02:44:19.451Z,16.93
2019-02-19T02:46:46.356Z,16.60
2019-02-19T02:49:13.023Z,17.10
2019-02-19T02:51:40.023Z,16.47
2019-02-19T02:54:09.139Z,17.43
2019-02-19T02:56:36.074Z,16.80
2019-02-19T02:59:03.081Z,15.60
2019-02-19T03:01:29.849Z,17.17
2019-02-19T03:03:59.591Z,17.03
2019-02-19T03:06:27.380Z,16.80
2019-02-19T03:08:54.146Z,16.57
2019-02-19T03:11:21.731Z,16.23
2019-02-19T03:13:48.687Z,17.77
2019-02-19T03:16:15.481Z,17.67
2019-02-19T03:18:43.615Z,16.90
2019-02-19T03:21:11.358Z,15.30
2019-02-19T03:23:38.387Z,16.27
2019-02-19T03:26:06.125Z,15.47
2019-02-19T03:28:35.616Z,15.33
2019-02-19T03:31:02.346Z,15.53
2019-02-19T03:33:29.232Z,14.77
2019-02-19T03:35:56.029Z,15.87
2019-02-19T03:38:23.495Z,15.63
2019-02-19T03:40:51.225Z,14.97
2019-02-19T03:43:17.985Z,15.07
2019-02-19T03:45:44.648Z,14.87
2019-02-19T03:48:11.443Z,16.70
2019-02-19T03:50:42.596Z,15.50
2019-02-19T03:53:09.292Z,16.10
2019-02-19T03:55:36.601Z,16.93
2019-02-19T03:58:03.575Z,15.93
2019-02-19T04:00:31.024Z,16.63
2019-02-19T04:02:58.115Z,17.17
2019-02-19T04:05:25.183Z,16.67
2019-02-19T04:07:51.935Z,16.00
2019-02-19T04:10:18.635Z,15.33
2019-02-19T04:12:45.373Z,17.07
2019-02-19T04:15:16.405Z,16.53
2019-02-19T04:17:43.276Z,16.33
2019-02-19T04:20:10.153Z,16.47
2019-02-19T04:22:37.716Z,16.93
2019-02-19T04:25:05.206Z,15.77
2019-02-19T04:27:32.602Z,16.00
2019-02-19T04:29:59.421Z,16.77
2019-02-19T04:32:27.153Z,16.47
2019-02-19T04:34:53.924Z,15.80
2019-02-19T04:37:20.592Z,16.13
2019-02-19T04:39:48.394Z,16.80
2019-02-19T04:42:15.120Z,16.23
2019-02-19T04:44:44.214Z,15.43
2019-02-19T04:47:11.157Z,16.63
2019-02-19T04:49:38.694Z,15.70
2019-02-19T04:52:06.442Z,17.53
2019-02-19T04:54:38.575Z,16.63
2019-02-19T04:57:05.337Z,16.70
2019-02-19T04:59:32.805Z,15.17
2019-02-19T05:01:59.847Z,17.07
2019-02-19T05:04:26.755Z,17.37
2019-02-19T05:06:54.728Z,17.83
2019-02-19T05:09:22.215Z,17.13
2019-02-19T05:11:49.630Z,17.83
2019-02-19T05:14:16.925Z,16.80
2019-02-19T05:16:43.897Z,17.67
2019-02-19T05:19:10.590Z,17.93
2019-02-19T05:21:39.401Z,18.80
2019-02-19T05:24:06.490Z,17.50
2019-02-19T05:26:33.344Z,18.47
2019-02-19T05:29:00.825Z,19.00
2019-02-19T05:31:28.449Z,18.93
2019-02-19T05:33:56.121Z,19.30
2019-02-19T05:36:22.867Z,18.33
2019-02-19T05:38:49.605Z,19.87
2019-02-19T05:41:16.345Z,20.27
2019-02-19T05:43:43.933Z,20.43
2019-02-19T05:46:11.435Z,20.80
2019-02-19T05:48:38.407Z,20.27
2019-02-19T05:51:05.244Z,20.77
2019-02-19T05:53:32.114Z,21.93
2019-02-19T05:55:58.856Z,21.10
2019-02-19T05:58:25.558Z,22.00
2019-02-19T06:00:52.226Z,21.50
2019-02-19T06:03:18.928Z,21.90
2019-02-19T06:05:45.622Z,21.17
2019-02-19T06:08:13.053Z,23.13
2019-02-19T06:10:39.752Z,21.10
2019-02-19T06:13:06.443Z,21.47
2019-02-19T06:15:33.096Z,21.87
2019-02-19T06:18:00.583Z,21.23
2019-02-19T06:20:27.225Z,21.27
2019-02-19T06:22:54.003Z,21.30
2019-02-19T06:25:20.691Z,21.77
2019-02-19T06:27:47.705Z,21.83
2019-02-19T06:30:15.462Z,20.70
2019-02-19T06:32:42.447Z,21.77
2019-02-19T06:35:09.863Z,20.17
2019-02-19T06:37:36.644Z,20.60
2019-02-19T06:40:04.097Z,21.17
2019-02-19T06:42:31.513Z,21.30
2019-02-19T06:44:58.211Z,21.87
2019-02-19T06:47:24.905Z,20.03
2019-02-19T06:49:51.590Z,20.23
2019-02-19T06:52:18.294Z,19.83
2019-02-19T06:54:44.985Z,20.90
2019-02-19T06:57:11.675Z,20.33
2019-02-19T06:59:38.453Z,20.33
2019-02-19T07:02:06.104Z,19.53
2019-02-19T07:04:32.841Z,19.67
2019-02-19T07:06:59.567Z,17.93
2019-02-19T07:09:27.318Z,19.03
2019-02-19T07:11:54.611Z,20.00
2019-02-19T07:14:21.538Z,19.70
2019-02-19T07:16:48.333Z,18.40
2019-02-19T07:19:20.700Z,17.53
2019-02-19T07:21:48.171Z,17.20
2019-02-19T07:24:15.473Z,17.50
2019-02-19T07:26:42.361Z,18.47
2019-02-19T07:29:09.062Z,18.57
2019-02-19T07:31:35.793Z,17.03
2019-02-19T07:34:02.524Z,17.93
2019-02-19T07:36:29.213Z,18.63
2019-02-19T07:38:55.931Z,16.17
2019-02-19T07:41:22.618Z,17.73
2019-02-19T07:43:49.549Z,16.97
2019-02-19T07:46:16.236Z,17.30
2019-02-19T07:48:43.620Z,18.17
2019-02-19T07:51:10.317Z,17.10
2019-02-19T07:53:37.741Z,17.17
2019-02-19T07:56:04.511Z,16.03
2019-02-19T07:58:31.934Z,17.23
2019-02-19T08:00:58.710Z,17.60
2019-02-19T08:03:26.194Z,17.03
2019-02-19T08:05:52.865Z,16.73
2019-02-19T08:08:19.516Z,16.73
2019-02-19T08:10:46.232Z,17.77
2019-02-19T08:13:12.917Z,17.20
2019-02-19T08:15:39.681Z,17.60
2019-02-19T08:18:07.070Z,18.83
2019-02-19T08:20:33.782Z,17.10
2019-02-19T08:23:00.472Z,17.73
2019-02-19T08:25:27.263Z,17.53
2019-02-19T08:27:54.718Z,16.53
2019-02-19T08:30:21.459Z,16.60
2019-02-19T08:32:48.305Z,17.80
2019-02-19T08:35:15.865Z,17.63
2019-02-19T08:37:42.602Z,18.03
2019-02-19T08:40:09.428Z,17.03
2019-02-19T08:42:36.905Z,16.77
2019-02-19T08:45:04.460Z,15.80
2019-02-19T08:47:31.919Z,16.10
2019-02-19T08:49:58.766Z,14.77
2019-02-19T08:52:25.504Z,15.70
2019-02-19T08:54:52.354Z,14.53
2019-02-19T08:57:19.086Z,14.60
2019-02-19T08:59:45.930Z,12.77
2019-02-19T09:02:14.209Z,12.23
2019-02-19T09:04:41.054Z,11.77
2019-02-19T09:07:07.891Z,11.27
2019-02-19T09:09:34.635Z,11.23
2019-02-19T09:12:01.376Z,10.67
2019-02-19T09:14:28.833Z,10.33
2019-02-19T09:16:55.682Z,10.83
2019-02-19T09:19:22.419Z,10.67
2019-02-19T09:21:49.360Z,10.43
2019-02-19T09:24:16.202Z,9.40
2019-02-19T09:26:42.943Z,10.27
2019-02-19T09:29:10.502Z,9.50
2019-02-19T09:31:37.245Z,10.00
2019-02-19T09:34:04.089Z,9.40
2019-02-19T09:36:30.931Z,9.50
2019-02-19T09:38:57.670Z,9.20
2019-02-19T09:41:24.413Z,9.53
2019-02-19T09:43:51.152Z,8.57
2019-02-19T09:46:17.891Z,9.37
2019-02-19T09:48:44.734Z,9.07
2019-02-19T09:51:11.476Z,8.73
2019-02-19T09:53:38.319Z,9.07
2019-02-19T09:56:05.059Z,8.73
2019-02-19T09:58:31.797Z,9.10
2019-02-19T10:00:58.644Z,8.90
2019-02-19T10:03:25.584Z,8.20
2019-02-19T10:05:52.321Z,9.33
2019-02-19T10:08:19.989Z,8.87
2019-02-19T10:10:47.451Z,8.30
2019-02-19T10:13:14.189Z,7.80
2019-02-19T10:15:41.031Z,8.07
2019-02-19T10:18:10.503Z,8.63
2019-02-19T10:20:35.227Z,8.17
2019-02-19T10:23:02.071Z,8.13
2019-02-19T10:25:28.809Z,8.13
2019-02-19T10:27:55.552Z,7.60
2019-02-19T10:30:22.393Z,7.07
2019-02-19T10:32:49.135Z,6.70
2019-02-19T10:35:16.592Z,6.87
2019-02-19T10:37:43.438Z,6.17
2019-02-19T10:40:12.835Z,5.60
2019-02-19T10:42:40.292Z,5.83
2019-02-19T10:45:18.022Z,5.00
2019-02-19T10:47:44.710Z,4.80
2019-02-19T10:50:15.238Z,4.77
2019-02-19T10:52:42.685Z,4.63
2019-02-19T10:55:09.370Z,4.37
2019-02-19T10:57:36.219Z,4.80
2019-02-19T11:00:03.059Z,5.23
2019-02-19T11:02:29.739Z,4.33
2019-02-19T11:04:56.632Z,4.60
2019-02-19T11:07:24.123Z,4.70
2019-02-19T11:09:50.927Z,4.20
2019-02-19T11:12:17.601Z,4.30
2019-02-19T11:14:44.293Z,3.93
2019-02-19T11:17:11.713Z,4.07
2019-02-19T11:19:38.466Z,4.60
2019-02-19T11:22:05.938Z,4.70
2019-02-19T11:24:33.414Z,4.40
2019-02-19T11:27:00.159Z,4.20
2019-02-19T11:29:26.837Z,4.73
2019-02-19T11:31:53.640Z,4.40
2019-02-19T11:34:20.365Z,4.20
2019-02-19T11:36:47.782Z,4.10
2019-02-19T11:39:14.470Z,3.90
2019-02-19T11:41:41.892Z,4.20
2019-02-19T11:44:08.529Z,4.00
2019-02-19T11:46:35.258Z,3.90
2019-02-19T11:49:02.680Z,4.40
2019-02-19T11:51:29.406Z,4.40
2019-02-19T11:53:56.094Z,3.93
2019-02-19T11:56:22.748Z,4.07
2019-02-19T11:58:50.158Z,3.97
2019-02-19T12:01:16.952Z,3.97
2019-02-19T12:03:44.363Z,3.70
2019-02-19T12:06:11.021Z,3.23
2019-02-19T12:08:39.206Z,3.57
2019-02-19T12:11:04.569Z,3.70
2019-02-19T12:13:31.233Z,3.53
2019-02-19T12:15:58.001Z,3.37
2019-02-19T12:18:24.716Z,4.07
2019-02-19T12:20:51.409Z,3.93
2019-02-19T12:23:18.864Z,3.63
2019-02-19T12:25:46.280Z,3.57
2019-02-19T12:28:12.944Z,4.20
2019-02-19T12:30:40.392Z,3.77
2019-02-19T12:33:07.068Z,3.80
2019-02-19T12:35:34.529Z,3.20
2019-02-19T12:38:01.215Z,4.03
2019-02-19T12:40:27.954Z,3.50
2019-02-19T12:42:54.703Z,3.80
2019-02-19T12:45:21.380Z,3.67
2019-02-19T12:47:48.822Z,3.57
2019-02-19T12:50:16.342Z,4.07
2019-02-19T12:52:43.013Z,3.50
2019-02-19T12:55:09.720Z,3.80
2019-02-19T12:57:36.890Z,3.60
2019-02-19T13:00:03.362Z,3.90
2019-02-19T13:02:30.083Z,3.40
2019-02-19T13:04:57.508Z,3.93
2019-02-19T13:07:24.200Z,3.37
2019-02-19T13:09:51.040Z,4.10
2019-02-19T13:12:17.691Z,3.87
2019-02-19T13:14:44.328Z,3.97
2019-02-19T13:17:11.020Z,3.33
2019-02-19T13:19:37.674Z,3.17
2019-02-19T13:22:05.128Z,3.70
2019-02-19T13:24:31.889Z,3.37
2019-02-19T13:26:59.282Z,3.87
2019-02-19T13:29:25.986Z,3.70
2019-02-19T13:31:53.653Z,3.73
2019-02-19T13:34:21.108Z,3.60
2019-02-19T13:36:48.506Z,3.67
2019-02-19T13:39:15.277Z,3.43
2019-02-19T13:41:42.151Z,4.10
2019-02-19T13:44:08.855Z,3.63
2019-02-19T13:46:36.451Z,3.83
2019-02-19T13:49:11.834Z,3.43
2019-02-19T13:51:31.470Z,3.33
2019-02-19T13:53:59.114Z,3.80
2019-02-19T13:56:26.631Z,3.80
2019-02-19T13:58:53.293Z,3.30
2019-02-19T14:01:20.078Z,3.27
2019-02-19T14:03:46.787Z,3.87
2019-02-19T14:06:14.200Z,3.60
2019-02-19T14:08:40.899Z,3.50
2019-02-19T14:11:07.631Z,3.60
2019-02-19T14:13:35.100Z,3.97
2019-02-19T14:16:06.950Z,3.90
2019-02-19T14:18:40.560Z,3.90
2019-02-19T14:21:22.192Z,3.83
2019-02-19T14:24:05.379Z,3.77
2019-02-19T14:26:38.260Z,3.80
2019-02-19T14:32:20.487Z,4.40
2019-02-19T14:35:02.799Z,3.00
2019-02-19T14:40:28.559Z,4.35
2019-02-19T14:43:00.246Z,4.00
2019-02-19T14:45:43.516Z,4.43
2019-02-19T14:48:13.153Z,3.80
2019-02-19T14:50:54.729Z,3.83
2019-02-19T14:53:26.672Z,4.23
2019-02-19T14:55:58.326Z,4.27
2019-02-19T14:58:32.646Z,3.87
2019-02-19T15:01:02.275Z,4.47
2019-02-19T15:03:31.044Z,4.20
2019-02-19T15:05:59.798Z,4.27
2019-02-19T15:08:32.652Z,4.10
2019-02-19T15:11:05.490Z,3.70
2019-02-19T15:13:33.262Z,3.80
2019-02-19T15:16:16.901Z,3.93
2019-02-19T15:19:01.215Z,3.87
2019-02-19T15:21:34.751Z,3.77
2019-02-19T15:24:02.721Z,3.73
2019-02-19T15:26:36.234Z,3.67
2019-02-19T15:29:08.387Z,3.70
2019-02-19T15:31:52.853Z,3.80
2019-02-19T15:34:29.502Z,4.27
2019-02-19T15:36:58.904Z,4.10
2019-02-19T15:42:25.988Z,4.60
2019-02-19T15:45:07.599Z,3.40
2019-02-19T15:47:35.132Z,3.30
2019-02-19T15:52:59.353Z,4.25
2019-02-19T15:55:41.077Z,4.23
2019-02-19T15:58:10.779Z,4.10
2019-02-19T16:00:38.343Z,3.87
2019-02-19T16:03:15.067Z,3.67
2019-02-19T16:05:53.668Z,3.60
2019-02-19T16:08:22.278Z,4.07
2019-02-19T16:10:52.027Z,3.93
2019-02-19T16:13:19.661Z,4.07
2019-02-19T16:15:50.017Z,3.83
2019-02-19T16:18:35.453Z,3.83
2019-02-19T16:21:17.984Z,4.20
2019-02-19T16:23:47.490Z,3.73
2019-02-19T16:26:19.329Z,3.90
2019-02-19T16:28:46.754Z,4.00
2019-02-19T16:31:14.453Z,3.83
2019-02-19T16:33:42.111Z,4.13
2019-02-19T16:36:14.997Z,4.03
2019-02-19T16:38:41.941Z,3.30
2019-02-19T16:41:16.769Z,3.53
2019-02-19T16:43:43.587Z,3.83
2019-02-19T16:46:15.195Z,3.63
2019-02-19T16:48:41.982Z,3.77
2019-02-19T16:51:10.573Z,4.07
2019-02-19T16:53:38.860Z,3.70
2019-02-19T16:56:10.712Z,4.40
2019-02-19T16:58:40.850Z,4.10
2019-02-19T17:01:11.513Z,3.77
2019-02-19T17:03:42.045Z,4.00
2019-02-19T17:06:10.667Z,3.87
2019-02-19T17:08:48.344Z,3.90
2019-02-19T17:11:21.160Z,3.60
2019-02-19T17:17:07.090Z,4.57
2019-02-19T17:19:35.812Z,3.43
2019-02-19T17:22:13.735Z,3.23
2019-02-19T17:24:47.303Z,2.80
2019-02-19T17:27:16.092Z,3.30
2019-02-19T17:29:43.588Z,3.57
2019-02-19T17:35:04.320Z,4.20
2019-02-19T17:37:34.822Z,3.50
2019-02-19T17:40:08.275Z,3.43
2019-02-19T17:42:44.902Z,3.23
2019-02-19T17:45:23.591Z,3.23
2019-02-19T17:47:57.212Z,3.10
2019-02-19T17:50:38.558Z,3.43
2019-02-19T17:53:02.778Z,2.97
2019-02-19T17:55:36.343Z,3.10
2019-02-19T17:58:03.276Z,3.57
2019-02-19T18:00:30.886Z,2.87
2019-02-19T18:03:04.025Z,3.00
2019-02-19T18:05:34.967Z,2.90
2019-02-19T18:08:02.501Z,2.97
2019-02-19T18:10:37.282Z,2.87
2019-02-19T18:13:08.895Z,2.80
2019-02-19T18:15:37.560Z,3.07
2019-02-19T18:18:21.005Z,2.93
2019-02-19T18:20:48.078Z,2.90
2019-02-19T18:23:15.546Z,2.80
2019-02-19T18:25:43.034Z,2.63
2019-02-19T18:28:09.755Z,2.70
2019-02-19T18:30:36.440Z,2.50
2019-02-19T18:33:03.174Z,2.50
2019-02-19T18:35:29.938Z,2.87
2019-02-19T18:37:57.354Z,2.60
2019-02-19T18:40:24.045Z,2.17
2019-02-19T18:42:51.613Z,2.73
2019-02-19T18:45:19.039Z,2.60
2019-02-19T18:47:46.472Z,2.13
2019-02-19T18:50:13.225Z,2.30
2019-02-19T18:52:39.886Z,2.30
2019-02-19T18:55:07.362Z,2.23
2019-02-19T18:57:34.202Z,2.30
2019-02-19T19:00:00.885Z,2.00
2019-02-19T19:02:27.556Z,2.07
2019-02-19T19:04:55.030Z,2.23
2019-02-19T19:07:21.879Z,2.07
2019-02-19T19:09:48.584Z,1.87
2019-02-19T19:12:15.370Z,2.20
2019-02-19T19:14:42.035Z,2.00
2019-02-19T19:17:08.945Z,2.33
2019-02-19T19:19:35.619Z,2.07
2019-02-19T19:22:03.351Z,2.43
2019-02-19T19:24:30.136Z,1.90
2019-02-19T19:26:56.815Z,2.40
2019-02-19T19:29:24.220Z,2.33
2019-02-19T19:31:50.951Z,1.80
2019-02-19T19:34:17.661Z,2.13
2019-02-19T19:36:44.336Z,2.20
2019-02-19T19:39:11.018Z,2.07
2019-02-19T19:41:38.431Z,1.93
2019-02-19T19:44:05.107Z,1.83
2019-02-19T19:46:31.824Z,2.23
2019-02-19T19:48:58.487Z,2.20
2019-02-19T19:51:25.359Z,2.37
2019-02-19T19:53:52.080Z,2.10
2019-02-19T19:56:19.486Z,2.13
2019-02-19T19:58:46.192Z,2.47
2019-02-19T20:01:12.954Z,2.10
2019-02-19T20:03:39.675Z,2.20
2019-02-19T20:06:07.101Z,2.40
2019-02-19T20:08:34.645Z,1.93
2019-02-19T20:11:01.332Z,2.50
2019-02-19T20:13:28.172Z,2.10
2019-02-19T20:15:55.012Z,2.53
2019-02-19T20:18:22.451Z,2.60
2019-02-19T20:20:49.878Z,3.03
2019-02-19T20:23:16.654Z,2.57
2019-02-19T20:25:44.057Z,2.03
2019-02-19T20:28:10.769Z,2.73
2019-02-19T20:30:37.533Z,2.63
2019-02-19T20:33:04.229Z,2.13
2019-02-19T20:35:31.807Z,2.27
2019-02-19T20:37:58.490Z,2.20
2019-02-19T20:40:25.171Z,2.93
2019-02-19T20:42:52.071Z,2.70
2019-02-19T20:45:18.852Z,2.33
2019-02-19T20:47:46.265Z,2.40
2019-02-19T20:50:13.066Z,2.57
2019-02-19T20:52:39.840Z,2.67
2019-02-19T20:55:06.592Z,2.70
2019-02-19T20:57:33.318Z,2.80
2019-02-19T20:59:59.982Z,2.50
2019-02-19T21:02:26.859Z,2.40
2019-02-19T21:04:54.310Z,2.30
2019-02-19T21:07:21.351Z,2.83
2019-02-19T21:09:49.142Z,3.20
2019-02-19T21:12:15.882Z,2.50
2019-02-19T21:14:42.624Z,2.90
2019-02-19T21:17:09.311Z,3.13
2019-02-19T21:19:36.368Z,3.07
2019-02-19T21:22:03.256Z,3.10
2019-02-19T21:24:30.524Z,2.67
2019-02-19T21:26:56.782Z,2.80
2019-02-19T21:29:24.472Z,2.83
2019-02-19T21:31:51.878Z,3.17
2019-02-19T21:34:18.801Z,2.90
2019-02-19T21:36:46.564Z,3.30
2019-02-19T21:39:13.981Z,2.53
2019-02-19T21:41:40.977Z,3.00
2019-02-19T21:44:07.812Z,3.00
2019-02-19T21:46:34.556Z,3.27
2019-02-19T21:49:01.287Z,2.50
2019-02-19T21:51:28.237Z,2.77
2019-02-19T21:53:54.959Z,3.27
2019-02-19T21:56:22.432Z,2.40
2019-02-19T21:58:49.173Z,3.03
2019-02-19T22:01:16.580Z,3.00
2019-02-19T22:03:43.306Z,2.83
2019-02-19T22:06:09.986Z,3.00
2019-02-19T22:08:37.437Z,2.43
2019-02-19T22:11:04.616Z,2.50
2019-02-19T22:13:31.358Z,2.70
2019-02-19T22:15:58.096Z,3.30
2019-02-19T22:18:24.852Z,3.30
2019-02-19T22:20:52.468Z,3.00
2019-02-19T22:23:19.160Z,3.27
2019-02-19T22:25:46.667Z,2.63
2019-02-19T22:28:13.543Z,3.07
2019-02-19T22:30:40.266Z,3.57
2019-02-19T22:33:07.041Z,2.70
2019-02-19T22:35:33.889Z,2.63
2019-02-19T22:38:00.761Z,2.37
2019-02-19T22:40:27.464Z,2.40
2019-02-19T22:42:54.166Z,2.87
2019-02-19T22:45:21.689Z,2.73
2019-02-19T22:47:53.417Z,2.87
2019-02-19T22:50:15.954Z,2.83
2019-02-19T22:52:42.630Z,2.87
2019-02-19T22:55:11.277Z,2.83
2019-02-19T22:57:38.798Z,2.50
2019-02-19T23:00:18.685Z,2.60
2019-02-19T23:02:45.882Z,2.70
2019-02-19T23:05:12.927Z,3.07
2019-02-19T23:07:39.772Z,3.23
2019-02-19T23:10:06.768Z,2.73
2019-02-19T23:12:33.859Z,2.63
2019-02-19T23:15:01.173Z,2.73
2019-02-19T23:17:28.030Z,2.50
2019-02-19T23:19:54.716Z,2.67
2019-02-19T23:22:22.094Z,2.53
2019-02-19T23:24:48.190Z,2.20
2019-02-19T23:27:14.905Z,2.67
2019-02-19T23:29:41.651Z,2.80
2019-02-19T23:32:08.455Z,3.50
2019-02-19T23:34:35.198Z,3.07
2019-02-19T23:37:02.061Z,3.00
2019-02-19T23:39:28.769Z,2.77
2019-02-19T23:41:55.462Z,2.43
2019-02-19T23:44:22.269Z,3.10
2019-02-19T23:46:48.949Z,2.73
2019-02-19T23:49:15.607Z,2.97
2019-02-19T23:51:42.351Z,2.70
2019-02-19T23:54:09.040Z,2.93
2019-02-19T23:56:35.686Z,2.57
2019-02-19T23:59:02.428Z,2.57
